Time;durP1;ratioP1;P1;durP2;ratioP2;P2;SDS_P1;SDS_P2;PMS_P1;PMS_P2;Temp;Humidity;BMP_temperature;BMP_pressure;BME280_temperature;BME280_humidity;BME280_pressure;Samples;Min_cycle;Max_cycle;Signal;HPM_P1;HPM_P2
2021/06/25 00:00:42;;;;;;;6.38;5.88;;;;;;;22.29;69.17;98488.16;5014563;28;20363;-65
2021/06/25 00:03:08;;;;;;;7.60;6.43;;;;;;;22.32;69.02;98487.94;5014052;28;20034;-65
2021/06/25 00:05:33;;;;;;;5.57;4.35;;;;;;;22.16;68.95;98473.41;5014417;28;20076;-65
2021/06/25 00:07:59;;;;;;;5.28;4.40;;;;;;;22.22;68.02;98473.00;5013720;28;20030;-65
2021/06/25 00:10:24;;;;;;;4.68;4.22;;;;;;;22.14;68.37;98480.53;5014819;28;20080;-64
2021/06/25 00:12:51;;;;;;;4.60;4.20;;;;;;;22.09;68.51;98475.63;5014316;28;20026;-64
2021/06/25 00:15:17;;;;;;;4.68;3.78;;;;;;;21.96;68.70;98474.78;5013491;28;20108;-64
2021/06/25 00:17:42;;;;;;;5.70;3.88;;;;;;;21.88;69.32;98467.44;5014300;28;20117;-64
2021/06/25 00:20:09;;;;;;;4.97;4.13;;;;;;;21.94;69.24;98468.81;5013225;28;20045;-64
2021/06/25 00:22:35;;;;;;;5.07;4.20;;;;;;;21.79;70.02;98462.84;5012592;28;20444;-64
2021/06/25 00:25:01;;;;;;;6.85;4.65;;;;;;;21.72;69.84;98472.03;5013398;28;20030;-65
2021/06/25 00:27:26;;;;;;;3.60;3.30;;;;;;;21.61;69.64;98451.00;5014409;28;20034;-65
2021/06/25 00:29:52;;;;;;;4.45;3.60;;;;;;;21.45;69.62;98452.13;5013586;28;20130;-63
2021/06/25 00:32:17;;;;;;;5.47;3.78;;;;;;;21.34;69.44;98473.72;5013309;28;20038;-64
2021/06/25 00:34:43;;;;;;;3.53;3.10;;;;;;;21.06;67.54;98503.28;5014617;28;20395;-63
2021/06/25 00:37:08;;;;;;;3.58;2.70;;;;;;;20.95;65.69;98513.56;5012999;28;20041;-64
2021/06/25 00:39:34;;;;;;;3.33;2.58;;;;;;;20.84;65.95;98509.00;5014350;28;20033;-64
2021/06/25 00:42:00;;;;;;;3.58;3.17;;;;;;;20.67;66.30;98506.59;5012686;28;20030;-64
2021/06/25 00:44:25;;;;;;;3.22;2.92;;;;;;;20.63;66.59;98525.97;5013326;28;20124;-64
2021/06/25 00:46:51;;;;;;;3.25;2.90;;;;;;;20.62;66.77;98532.13;5013445;28;20048;-64
2021/06/25 00:49:17;;;;;;;3.65;3.35;;;;;;;20.58;66.61;98545.44;5013677;28;20322;-64
2021/06/25 00:51:44;;;;;;;5.30;2.65;;;;;;;20.49;66.90;98547.66;5014350;28;20025;-64
2021/06/25 00:54:11;;;;;;;2.97;2.63;;;;;;;20.52;67.33;98549.25;5011365;28;20026;-64
2021/06/25 00:56:37;;;;;;;3.35;3.08;;;;;;;20.43;67.41;98549.78;5002212;28;20033;-64
2021/06/25 00:59:04;;;;;;;3.58;3.10;;;;;;;20.45;66.82;98563.56;5014007;28;20057;-63
2021/06/25 01:01:29;;;;;;;2.95;2.75;;;;;;;20.40;66.50;98560.41;5001643;28;20292;-64
2021/06/25 01:03:55;;;;;;;2.83;2.60;;;;;;;20.22;66.86;98569.25;5013758;28;20041;-64
2021/06/25 01:06:20;;;;;;;2.40;2.20;;;;;;;20.19;66.96;98569.44;5013372;28;20049;-64
2021/06/25 01:08:46;;;;;;;3.40;3.10;;;;;;;20.17;67.01;98566.09;5014323;28;20032;-64
2021/06/25 01:11:13;;;;;;;3.92;2.67;;;;;;;20.17;67.59;98563.47;5011322;28;20034;-63
2021/06/25 01:13:38;;;;;;;3.30;2.80;;;;;;;20.15;67.35;98563.59;5014102;28;20030;-63
2021/06/25 01:16:06;;;;;;;3.13;2.80;;;;;;;20.05;67.72;98555.47;5014029;28;20512;-64
2021/06/25 01:18:32;;;;;;;3.13;2.60;;;;;;;20.06;67.74;98558.91;5013431;28;20607;-64
2021/06/25 01:20:59;;;;;;;3.60;3.05;;;;;;;19.99;67.93;98555.81;5015396;28;20051;-64
2021/06/25 01:23:25;;;;;;;3.33;3.03;;;;;;;20.01;67.55;98556.59;5017825;28;20292;-64
2021/06/25 01:25:50;;;;;;;4.15;3.17;;;;;;;20.01;67.97;98556.59;5015040;28;20030;-64
2021/06/25 01:28:16;;;;;;;3.10;2.90;;;;;;;20.00;67.89;98554.06;5017568;28;20038;-64
2021/06/25 01:30:44;;;;;;;3.90;3.55;;;;;;;20.05;67.54;98552.88;5016954;28;20048;-64
2021/06/25 01:33:12;;;;;;;4.05;3.00;;;;;;;20.03;67.31;98554.72;5013822;28;20104;-64
2021/06/25 01:35:38;;;;;;;2.85;2.65;;;;;;;20.09;67.65;98558.72;5018328;28;20029;-64
2021/06/25 01:38:04;;;;;;;3.65;3.35;;;;;;;20.09;68.14;98558.72;5017212;28;20315;-64
2021/06/25 01:40:30;;;;;;;5.43;2.90;;;;;;;20.00;68.36;98559.25;5016899;28;20036;-64
2021/06/25 01:42:59;;;;;;;3.38;3.08;;;;;;;20.01;68.66;98577.41;5018649;28;20041;-63
2021/06/25 01:45:26;;;;;;;3.65;3.20;;;;;;;19.97;68.94;98575.91;5017885;28;20042;-64
2021/06/25 01:47:52;;;;;;;3.45;3.25;;;;;;;20.03;69.13;98577.28;5015499;28;20286;-64
2021/06/25 01:50:20;;;;;;;4.72;3.22;;;;;;;20.01;69.58;98576.56;5017056;28;20061;-63
2021/06/25 01:52:49;;;;;;;4.18;3.88;;;;;;;20.05;69.85;98576.31;5015428;28;20018;-64
2021/06/25 01:55:15;;;;;;;5.25;4.38;;;;;;;19.94;70.50;98570.03;5017731;28;20034;-63
2021/06/25 01:57:41;;;;;;;3.70;3.40;;;;;;;19.94;70.70;98572.66;5015438;28;20386;-65
2021/06/25 02:00:07;;;;;;;3.60;3.30;;;;;;;19.87;71.10;98577.34;5016885;28;20339;-64
2021/06/25 02:02:33;;;;;;;4.38;3.97;;;;;;;19.90;71.01;98564.16;5016482;28;20033;-64
2021/06/25 02:04:59;;;;;;;4.10;3.65;;;;;;;19.85;70.89;98568.81;5016062;28;20049;-64
2021/06/25 02:07:24;;;;;;;4.07;3.78;;;;;;;19.80;71.44;98559.59;5016755;28;20029;-65
2021/06/25 02:09:50;;;;;;;4.93;4.55;;;;;;;19.71;72.16;98560.09;5015050;28;20454;-64
2021/06/25 02:12:15;;;;;;;4.78;4.38;;;;;;;19.68;72.08;98568.94;5015808;28;20033;-64
2021/06/25 02:14:42;;;;;;;5.20;4.70;;;;;;;19.65;72.58;98573.47;5016182;28;20167;-64
2021/06/25 02:17:07;;;;;;;4.47;4.13;;;;;;;19.62;72.77;98579.69;5015351;28;20045;-64
2021/06/25 02:19:33;;;;;;;4.13;3.83;;;;;;;19.73;72.88;98568.69;5012468;28;20049;-64
2021/06/25 02:21:58;;;;;;;4.30;3.90;;;;;;;19.65;73.03;98569.09;5015854;28;20048;-64
2021/06/25 02:24:24;;;;;;;3.75;3.47;;;;;;;19.61;73.44;98564.97;5014245;28;20096;-64
2021/06/25 02:26:49;;;;;;;6.18;3.53;;;;;;;19.68;72.94;98555.94;5016230;28;20040;-64
2021/06/25 02:29:15;;;;;;;3.85;3.55;;;;;;;19.67;72.72;98567.25;5015612;28;20034;-64
2021/06/25 02:31:40;;;;;;;4.65;3.40;;;;;;;19.63;72.57;98570.13;5015744;28;20045;-63
2021/06/25 02:34:06;;;;;;;4.88;3.67;;;;;;;19.62;72.27;98558.88;5016663;28;20026;-64
2021/06/25 02:36:31;;;;;;;4.55;4.10;;;;;;;19.61;72.52;98558.03;5014009;28;20275;-64
2021/06/25 02:38:57;;;;;;;3.95;3.65;;;;;;;19.62;72.28;98569.28;5016367;28;20026;-64
2021/06/25 02:41:22;;;;;;;3.95;3.60;;;;;;;19.56;72.02;98560.03;5015850;28;20706;-64
2021/06/25 02:43:48;;;;;;;4.40;3.25;;;;;;;19.55;71.89;98566.19;5015900;28;20422;-64
2021/06/25 02:46:14;;;;;;;3.42;3.13;;;;;;;19.55;72.12;98565.34;5016319;28;20044;-64
2021/06/25 02:48:39;;;;;;;3.95;3.00;;;;;;;19.43;72.19;98556.47;5017137;28;20116;-64
2021/06/25 02:51:05;;;;;;;3.55;3.30;;;;;;;19.44;72.04;98554.69;5015513;28;20033;-64
2021/06/25 02:53:30;;;;;;;3.45;3.15;;;;;;;19.32;72.14;98551.00;5015833;28;20034;-64
2021/06/25 02:55:56;;;;;;;3.35;3.15;;;;;;;19.33;72.07;98557.03;5015281;28;20041;-64
2021/06/25 02:58:23;;;;;;;3.58;3.30;;;;;;;19.35;72.09;98550.00;5015077;28;20037;-64
2021/06/25 03:00:50;;;;;;;3.60;3.30;;;;;;;19.28;71.95;98557.28;5015040;28;20029;-64
2021/06/25 03:03:16;;;;;;;3.35;3.15;;;;;;;19.22;72.46;98544.63;5014230;28;20299;-63
2021/06/25 03:05:42;;;;;;;3.88;3.25;;;;;;;19.22;72.54;98546.41;5014956;28;20117;-63
2021/06/25 03:08:08;;;;;;;3.50;2.90;;;;;;;19.15;72.84;98551.91;5014491;28;20026;-64
2021/06/25 03:10:34;;;;;;;3.00;2.80;;;;;;;19.16;72.80;98552.75;5015965;28;20040;-64
2021/06/25 03:13:00;;;;;;;4.72;3.30;;;;;;;19.06;72.97;98554.19;5014418;28;20033;-64
2021/06/25 03:15:26;;;;;;;4.50;4.18;;;;;;;19.01;73.37;98554.41;5012871;28;20049;-64
2021/06/25 03:17:51;;;;;;;3.72;3.42;;;;;;;19.02;72.99;98544.88;5013908;28;20350;-63
2021/06/25 03:20:17;;;;;;;4.57;3.45;;;;;;;18.97;73.41;98549.47;5015223;28;20046;-63
2021/06/25 03:22:43;;;;;;;3.83;3.47;;;;;;;18.89;73.42;98536.91;5014135;28;20026;-63
2021/06/25 03:25:09;;;;;;;3.47;3.28;;;;;;;18.97;73.25;98539.91;5014563;28;20041;-63
2021/06/25 03:27:35;;;;;;;4.90;2.60;;;;;;;18.89;73.68;98539.50;5015694;28;20124;-63
2021/06/25 03:30:03;;;;;;;4.03;3.67;;;;;;;18.95;73.38;98533.16;5015312;28;20310;-64
2021/06/25 03:32:28;;;;;;;6.38;3.80;;;;;;;18.91;73.23;98529.88;5013519;28;20029;-64
2021/06/25 03:34:53;;;;;;;6.10;3.58;;;;;;;18.96;73.62;98535.66;5013981;28;20326;-64
2021/06/25 03:37:21;;;;;;;3.83;3.53;;;;;;;18.95;73.47;98528.78;5015365;28;20036;-64
2021/06/25 03:39:46;;;;;;;3.97;3.67;;;;;;;18.99;73.14;98521.66;5015426;28;20069;-64
2021/06/25 03:42:12;;;;;;;3.78;2.92;;;;;;;18.93;73.55;98525.41;5016204;28;20358;-64
2021/06/25 03:44:37;;;;;;;4.72;3.70;;;;;;;18.94;73.68;98529.69;5015821;28;20427;-63
2021/06/25 03:47:02;;;;;;;5.05;3.45;;;;;;;19.03;73.69;98520.56;5016777;28;20037;-64
2021/06/25 03:49:28;;;;;;;4.13;3.78;;;;;;;19.04;73.31;98525.69;5014264;28;20642;-64
2021/06/25 03:51:53;;;;;;;4.03;3.72;;;;;;;19.04;73.53;98519.66;5014982;28;20030;-63
2021/06/25 03:54:19;;;;;;;3.60;3.20;;;;;;;19.07;73.46;98524.69;5014302;28;20386;-64
2021/06/25 03:56:44;;;;;;;4.70;4.00;;;;;;;19.07;73.25;98527.28;5016139;28;20029;-64
2021/06/25 03:59:10;;;;;;;4.28;3.88;;;;;;;19.14;73.17;98528.59;5014452;28;20033;-64
2021/06/25 04:01:35;;;;;;;3.63;3.35;;;;;;;19.22;72.53;98528.19;5011463;28;20080;-64
2021/06/25 04:04:01;;;;;;;3.75;3.50;;;;;;;19.23;72.23;98535.06;5019175;28;20022;-64
2021/06/25 04:06:27;;;;;;;4.00;3.33;;;;;;;19.25;72.05;98535.81;5015988;28;20375;-62
2021/06/25 04:08:53;;;;;;;3.45;3.15;;;;;;;19.36;71.50;98544.69;5014210;28;20040;-63
2021/06/25 04:11:18;;;;;;;4.32;3.30;;;;;;;19.51;71.40;98546.47;5013214;28;20278;-63
2021/06/25 04:13:44;;;;;;;4.32;3.28;;;;;;;19.57;70.85;98534.88;5015771;28;20397;-63
2021/06/25 04:16:09;;;;;;;4.63;3.10;;;;;;;19.61;70.30;98538.97;5014740;28;20073;-63
2021/06/25 04:18:35;;;;;;;3.40;3.20;;;;;;;19.63;69.90;98544.94;5013968;28;20038;-63
2021/06/25 04:21:01;;;;;;;3.15;2.95;;;;;;;19.77;69.61;98546.75;5011596;28;20062;-63
2021/06/25 04:23:26;;;;;;;5.03;3.78;;;;;;;19.82;69.20;98548.16;5013475;28;20401;-63
2021/06/25 04:25:52;;;;;;;3.35;3.05;;;;;;;19.72;69.08;98538.38;5013691;28;20038;-63
2021/06/25 04:28:18;;;;;;;5.07;3.30;;;;;;;19.79;68.46;98537.94;5012849;28;20040;-64
2021/06/25 04:30:44;;;;;;;2.88;2.67;;;;;;;19.81;67.59;98538.69;5012243;28;20033;-64
2021/06/25 04:33:13;;;;;;;2.92;2.72;;;;;;;19.99;67.01;98552.38;5013173;28;20029;-64
2021/06/25 04:35:39;;;;;;;3.08;2.78;;;;;;;20.03;67.05;98559.06;5011890;28;20036;-63
2021/06/25 04:38:05;;;;;;;3.13;2.42;;;;;;;20.07;66.08;98556.22;5015624;28;20044;-63
2021/06/25 04:40:35;;;;;;;2.58;2.45;;;;;;;20.18;66.07;98546.94;5012558;28;20022;-64
2021/06/25 04:43:01;;;;;;;2.22;2.13;;;;;;;20.13;65.77;98557.63;5014928;28;20395;-64
2021/06/25 04:45:26;;;;;;;2.22;1.98;;;;;;;20.16;65.20;98560.03;5013676;28;20029;-64
2021/06/25 04:47:52;;;;;;;3.63;2.17;;;;;;;20.17;64.73;98548.69;5014884;28;20036;-64
2021/06/25 04:50:17;;;;;;;4.00;2.15;;;;;;;20.39;64.33;98558.72;5013622;28;20449;-64
2021/06/25 04:52:43;;;;;;;2.67;2.30;;;;;;;20.52;63.69;98551.84;5014130;28;20034;-64
2021/06/25 04:55:08;;;;;;;2.05;1.95;;;;;;;20.51;63.68;98555.38;5017701;28;20327;-64
2021/06/25 04:57:34;;;;;;;2.00;1.88;;;;;;;20.50;62.53;98554.53;5019264;28;20051;-63
2021/06/25 05:00:00;;;;;;;2.58;1.60;;;;;;;20.54;63.10;98555.19;5016943;28;20105;-63
2021/06/25 05:02:25;;;;;;;2.05;1.90;;;;;;;20.61;62.98;98553.06;5016596;28;20391;-63
2021/06/25 05:04:51;;;;;;;2.00;1.90;;;;;;;20.60;62.27;98565.25;5017149;28;20030;-64
2021/06/25 05:07:16;;;;;;;2.63;1.83;;;;;;;20.65;62.40;98563.19;5016524;28;20833;-64
2021/06/25 05:09:42;;;;;;;1.40;1.40;;;;;;;20.70;61.98;98561.16;5016653;28;20121;-64
2021/06/25 05:12:08;;;;;;;4.93;2.10;;;;;;;21.00;61.26;98557.59;5018014;28;20386;-64
2021/06/25 05:14:33;;;;;;;1.88;1.77;;;;;;;20.96;60.98;98551.72;5017885;28;20432;-64
2021/06/25 05:16:59;;;;;;;1.83;1.40;;;;;;;20.91;60.58;98559.00;5016416;28;20397;-64
2021/06/25 05:19:24;;;;;;;1.70;1.60;;;;;;;20.98;60.75;98552.47;5015801;28;20050;-63
2021/06/25 05:21:50;;;;;;;1.85;1.75;;;;;;;21.03;60.14;98546.97;5016417;28;20140;-63
2021/06/25 05:24:15;;;;;;;1.70;1.63;;;;;;;21.15;60.18;98556.66;5016650;28;20061;-64
2021/06/25 05:26:41;;;;;;;1.75;1.65;;;;;;;21.07;59.73;98564.91;5015824;28;20034;-63
2021/06/25 05:29:06;;;;;;;1.88;1.50;;;;;;;21.12;59.40;98549.00;5016431;28;20415;-64
2021/06/25 05:31:32;;;;;;;1.75;1.65;;;;;;;21.13;59.60;98551.53;5015012;28;20287;-64
2021/06/25 05:33:57;;;;;;;1.55;1.45;;;;;;;21.25;59.10;98555.97;5016673;28;20088;-64
2021/06/25 05:36:23;;;;;;;3.20;1.77;;;;;;;21.32;58.91;98551.19;5015553;28;20038;-64
2021/06/25 05:38:49;;;;;;;1.60;1.52;;;;;;;21.39;58.83;98557.69;5017154;28;20375;-64
2021/06/25 05:41:14;;;;;;;3.10;1.67;;;;;;;21.55;58.52;98555.78;5014947;28;20026;-64
2021/06/25 05:43:42;;;;;;;1.70;1.60;;;;;;;21.60;57.63;98553.69;5017304;28;20051;-64
2021/06/25 05:46:07;;;;;;;1.73;1.63;;;;;;;21.76;58.04;98554.41;5016442;28;20029;-64
2021/06/25 05:48:33;;;;;;;1.73;1.63;;;;;;;21.58;57.36;98555.59;5016911;28;20056;-64
2021/06/25 05:50:58;;;;;;;1.85;1.70;;;;;;;21.72;57.16;98555.53;5017194;28;20826;-64
2021/06/25 05:53:25;;;;;;;2.72;1.50;;;;;;;21.99;56.09;98549.44;5015404;28;20030;-64
2021/06/25 05:55:51;;;;;;;1.95;1.70;;;;;;;22.13;56.43;98557.19;5015843;28;20029;-64
2021/06/25 05:58:16;;;;;;;2.40;2.22;;;;;;;22.21;56.13;98555.75;5018004;28;20036;-64
2021/06/25 06:00:42;;;;;;;2.20;2.00;;;;;;;22.20;55.40;98554.06;5014768;28;20454;-64
2021/06/25 06:03:07;;;;;;;3.30;2.15;;;;;;;22.44;54.85;98550.75;5018312;28;20421;-64
2021/06/25 06:05:32;;;;;;;1.75;1.65;;;;;;;22.54;53.80;98549.16;5014850;28;20057;-64
2021/06/25 06:07:58;;;;;;;6.03;3.28;;;;;;;22.40;53.85;98555.34;5016228;28;20070;-63
2021/06/25 06:10:23;;;;;;;1.75;1.65;;;;;;;22.38;54.92;98557.22;5015282;28;20029;-63
2021/06/25 06:12:49;;;;;;;4.53;1.77;;;;;;;22.50;55.45;98559.00;5016789;28;20025;-64
2021/06/25 06:15:18;;;;;;;1.60;1.50;;;;;;;22.47;55.76;98563.59;5016559;28;20307;-66
2021/06/25 06:17:47;;;;;;;1.95;1.85;;;;;;;22.54;55.52;98564.84;5016577;28;20318;-66
2021/06/25 06:20:23;;;;;;;2.65;1.90;;;;;;;22.59;55.58;98563.59;5014974;28;20049;-66
2021/06/25 06:31:20;;;;;;;2.00;1.65;;;;;;;22.22;56.65;98574.88;5015742;28;20044;-65
2021/06/25 06:36:26;;;;;;;2.38;2.00;;;;;;;22.47;56.31;98574.88;5013689;28;20034;-65
2021/06/25 06:38:53;;;;;;;3.05;1.60;;;;;;;22.57;55.85;98575.09;5015772;28;20256;-65
2021/06/25 06:41:19;;;;;;;2.97;1.50;;;;;;;22.61;55.70;98584.41;5014729;28;20034;-64
2021/06/25 06:43:46;;;;;;;1.70;1.60;;;;;;;22.46;56.04;98595.88;5013638;28;20033;-65
2021/06/25 06:46:12;;;;;;;1.52;1.50;;;;;;;22.43;56.06;98596.94;5016180;28;20091;-64
2021/06/25 06:48:40;;;;;;;2.05;1.95;;;;;;;22.40;56.47;98597.16;5012917;28;20036;-65
2021/06/25 06:51:06;;;;;;;1.50;1.50;;;;;;;22.29;56.34;98594.41;5014068;28;20029;-66
2021/06/25 06:53:33;;;;;;;1.80;1.70;;;;;;;22.32;56.26;98595.03;5012861;28;20040;-65
2021/06/25 06:55:59;;;;;;;2.10;1.88;;;;;;;22.59;55.99;98592.34;5014943;28;20072;-66
2021/06/25 06:58:24;;;;;;;1.80;1.70;;;;;;;22.55;55.62;98597.88;5014497;28;20631;-65
2021/06/25 07:00:50;;;;;;;1.90;1.80;;;;;;;22.64;55.68;98585.03;5014129;28;20295;-63
2021/06/25 07:03:15;;;;;;;2.45;1.40;;;;;;;22.70;55.51;98592.47;5014535;28;20631;-64
2021/06/25 07:05:41;;;;;;;2.58;1.80;;;;;;;22.65;55.00;98594.53;5013630;28;20125;-63
2021/06/25 07:08:07;;;;;;;1.55;1.45;;;;;;;22.52;55.08;98596.31;5019481;28;20068;-62
2021/06/25 07:10:32;;;;;;;3.90;1.83;;;;;;;22.51;54.85;98593.78;5013949;28;20061;-63
2021/06/25 07:12:58;;;;;;;3.67;1.75;;;;;;;22.37;55.21;98617.41;5014645;28;20305;-65
2021/06/25 07:15:23;;;;;;;3.08;1.70;;;;;;;22.38;55.42;98609.47;5013756;28;20037;-64
2021/06/25 07:17:49;;;;;;;1.60;1.50;;;;;;;22.55;54.78;98609.16;5014973;28;20033;-64
2021/06/25 07:20:15;;;;;;;2.00;1.90;;;;;;;22.49;54.21;98601.72;5013793;28;20061;-62
2021/06/25 07:22:41;;;;;;;3.80;1.40;;;;;;;22.60;54.39;98609.69;5016089;28;20128;-63
2021/06/25 07:25:07;;;;;;;2.00;1.90;;;;;;;22.74;54.51;98593.09;5012973;28;20337;-64
2021/06/25 07:27:32;;;;;;;1.80;1.70;;;;;;;22.88;53.50;98597.34;5014644;28;20066;-64
2021/06/25 07:29:58;;;;;;;1.80;1.55;;;;;;;22.80;54.05;98610.97;5012975;28;20109;-64
2021/06/25 07:32:24;;;;;;;2.28;1.40;;;;;;;22.83;52.97;98612.56;5013897;28;20039;-64
2021/06/25 07:34:49;;;;;;;1.50;1.40;;;;;;;22.83;53.80;98610.75;5013646;28;20037;-64
2021/06/25 07:37:14;;;;;;;2.20;1.60;;;;;;;22.81;53.07;98620.50;5014293;28;20460;-64
2021/06/25 07:39:40;;;;;;;2.30;1.38;;;;;;;22.69;53.53;98627.41;5015619;28;20299;-64
2021/06/25 07:42:06;;;;;;;2.08;1.90;;;;;;;22.48;54.50;98626.22;5014529;28;20409;-64
2021/06/25 07:44:31;;;;;;;2.25;1.95;;;;;;;22.55;53.97;98630.06;5012292;28;20091;-64
2021/06/25 07:46:57;;;;;;;2.13;1.85;;;;;;;22.82;53.79;98631.78;5016160;28;20059;-64
2021/06/25 07:49:22;;;;;;;2.33;1.48;;;;;;;22.60;52.81;98621.94;5013369;28;20017;-63
2021/06/25 07:51:48;;;;;;;2.85;2.08;;;;;;;22.68;53.34;98620.47;5015763;28;20022;-65
2021/06/25 07:54:14;;;;;;;1.95;1.58;;;;;;;22.49;53.52;98625.25;5013028;28;20111;-63
2021/06/25 07:56:40;;;;;;;3.15;1.75;;;;;;;22.21;54.28;98628.03;5015529;28;20313;-63
2021/06/25 07:59:05;;;;;;;1.55;1.45;;;;;;;22.23;54.36;98639.25;5013622;28;20438;-62
2021/06/25 08:01:31;;;;;;;3.70;1.60;;;;;;;22.39;54.79;98611.16;5013224;28;20034;-63
2021/06/25 08:03:56;;;;;;;4.45;1.60;;;;;;;22.32;54.40;98621.16;5014869;28;20049;-63
2021/06/25 08:06:22;;;;;;;1.95;1.40;;;;;;;22.54;53.88;98633.63;5011196;28;20260;-63
2021/06/25 08:08:48;;;;;;;4.68;1.58;;;;;;;22.62;53.47;98615.63;5013201;28;20037;-64
2021/06/25 08:11:13;;;;;;;1.48;1.38;;;;;;;22.61;52.74;98623.59;5013223;28;20029;-63
2021/06/25 08:13:38;;;;;;;1.60;1.30;;;;;;;22.57;52.47;98632.59;5014380;28;20152;-64
2021/06/25 08:16:04;;;;;;;1.63;1.52;;;;;;;22.72;52.59;98623.72;5013548;28;20091;-64
2021/06/25 08:18:30;;;;;;;2.15;1.38;;;;;;;22.57;52.40;98635.22;5013321;28;20381;-63
2021/06/25 08:20:56;;;;;;;3.63;1.58;;;;;;;22.56;53.25;98638.75;5013021;28;20833;-64
2021/06/25 08:23:22;;;;;;;4.57;1.30;;;;;;;22.43;53.43;98637.91;5014138;28;20464;-63
2021/06/25 08:25:48;;;;;;;2.72;1.10;;;;;;;22.48;52.62;98649.72;5011812;28;20033;-64
2021/06/25 08:28:13;;;;;;;2.25;1.92;;;;;;;22.50;52.26;98650.44;5013929;28;20390;-63
2021/06/25 08:30:39;;;;;;;1.98;1.17;;;;;;;22.41;52.06;98651.06;5013276;28;20057;-63
2021/06/25 08:33:04;;;;;;;1.38;1.27;;;;;;;22.62;52.19;98670.53;5013530;28;20204;-64
2021/06/25 08:35:30;;;;;;;1.10;1.10;;;;;;;22.61;51.54;98663.66;5013103;28;20766;-61
2021/06/25 08:37:55;;;;;;;3.55;1.77;;;;;;;22.62;51.50;98654.00;5013219;28;20374;-62
2021/06/25 08:40:23;;;;;;;1.40;1.33;;;;;;;22.77;51.63;98653.00;5013016;28;20084;-61
2021/06/25 08:42:49;;;;;;;2.22;1.10;;;;;;;22.41;51.64;98658.91;5011546;28;20029;-62
2021/06/25 08:45:16;;;;;;;1.60;1.23;;;;;;;22.40;52.76;98656.41;5015739;28;20072;-61
2021/06/25 08:47:43;;;;;;;1.33;1.33;;;;;;;22.61;52.42;98653.19;5012367;28;20029;-62
2021/06/25 08:50:15;;;;;;;1.30;1.30;;;;;;;22.76;52.08;98680.09;5014302;28;20033;-62
2021/06/25 08:52:52;;;;;;;3.33;1.40;;;;;;;22.89;52.49;98664.41;5012804;28;20034;-61
2021/06/25 08:55:19;;;;;;;1.30;1.20;;;;;;;23.03;52.31;98652.06;5012568;28;20033;-62
2021/06/25 08:57:45;;;;;;;1.42;1.27;;;;;;;22.84;51.66;98656.03;4993895;28;20041;-62
2021/06/25 09:00:16;;;;;;;1.73;1.63;;;;;;;23.03;50.87;98670.38;5019888;28;20040;-62
2021/06/25 09:02:42;;;;;;;1.92;1.83;;;;;;;23.18;50.50;98679.75;5011469;28;20029;-62
2021/06/25 09:05:23;;;;;;;1.38;1.35;;;;;;;23.30;49.19;98654.53;4997659;28;20018;-63
2021/06/25 09:07:49;;;;;;;2.30;1.77;;;;;;;23.17;49.99;98661.56;5001955;28;20029;-63
2021/06/25 09:10:28;;;;;;;1.42;1.42;;;;;;;23.29;48.99;98658.09;5011998;28;20346;-64
2021/06/25 09:13:02;;;;;;;2.15;1.60;;;;;;;23.32;49.90;98654.41;5012810;28;20169;-65
2021/06/25 09:15:31;;;;;;;2.10;1.30;;;;;;;23.32;49.22;98670.97;5013156;28;20029;-65
2021/06/25 09:18:03;;;;;;;1.70;1.60;;;;;;;23.33;48.85;98650.88;5013879;28;20033;-65
2021/06/25 09:20:43;;;;;;;1.33;1.25;;;;;;;23.27;48.75;98648.66;5018549;28;20474;-65
2021/06/25 09:23:12;;;;;;;2.30;1.30;;;;;;;23.40;49.21;98641.63;5008829;28;20030;-65
2021/06/25 09:25:54;;;;;;;1.27;1.27;;;;;;;23.57;48.89;98642.13;5012444;28;20480;-65
2021/06/25 09:28:24;;;;;;;2.97;1.20;;;;;;;23.13;49.68;98655.69;5012357;28;20080;-65
2021/06/25 09:30:50;;;;;;;1.42;1.02;;;;;;;23.00;49.51;98660.09;5015575;28;20030;-63
2021/06/25 09:33:15;;;;;;;2.47;1.08;;;;;;;23.32;49.56;98651.81;5012603;28;20029;-64
2021/06/25 09:35:41;;;;;;;1.48;1.38;;;;;;;23.53;49.33;98653.78;5012816;28;20398;-64
2021/06/25 09:38:07;;;;;;;1.42;1.33;;;;;;;23.53;49.43;98645.06;5013241;28;20042;-64
2021/06/25 09:40:37;;;;;;;1.35;1.35;;;;;;;23.63;48.67;98649.56;5014261;28;20374;-65
2021/06/25 09:43:13;;;;;;;1.40;1.30;;;;;;;23.85;48.17;98638.34;5014655;28;20057;-64
2021/06/25 09:45:49;;;;;;;1.48;1.38;;;;;;;24.04;48.12;98624.75;5005187;28;20022;-69
2021/06/25 09:48:15;;;;;;;1.25;1.15;;;;;;;23.96;48.21;98632.34;5017809;28;20087;-69
2021/06/25 09:50:43;;;;;;;1.27;1.27;;;;;;;23.73;47.77;98635.78;5016123;28;20374;-70
2021/06/25 09:53:09;;;;;;;1.48;1.40;;;;;;;23.85;48.07;98640.97;5015727;28;20038;-69
2021/06/25 09:55:50;;;;;;;1.92;1.50;;;;;;;24.11;48.03;98633.81;5015259;28;20390;-68
2021/06/25 10:03:48;;;;;;;1.23;1.23;;;;;;;24.00;47.80;98639.88;5016369;28;20048;-67
2021/06/25 10:06:16;;;;;;;4.63;1.77;;;;;;;24.18;48.26;98627.22;5017531;28;20053;-67
2021/06/25 10:08:44;;;;;;;1.33;1.33;;;;;;;24.02;47.19;98621.41;5017340;28;20051;-69
2021/06/25 10:11:10;;;;;;;1.30;1.30;;;;;;;24.09;47.96;98620.84;5013616;28;20025;-69
2021/06/25 10:13:38;;;;;;;1.30;1.30;;;;;;;24.06;47.65;98626.28;5013951;28;20046;-68
2021/06/25 10:16:05;;;;;;;1.40;1.40;;;;;;;24.05;47.81;98636.91;5016184;28;20418;-68
2021/06/25 10:18:39;;;;;;;1.20;1.20;;;;;;;24.12;47.07;98654.69;5013209;28;20383;-68
2021/06/25 10:21:06;;;;;;;1.17;1.17;;;;;;;23.73;48.14;98660.19;5014626;28;20045;-68
2021/06/25 10:23:33;;;;;;;1.35;1.33;;;;;;;23.53;48.84;98660.78;5012950;28;20893;-68
2021/06/25 10:26:02;;;;;;;0.93;0.93;;;;;;;23.34;48.09;98653.34;5016077;28;20391;-68
2021/06/25 10:28:28;;;;;;;1.50;1.40;;;;;;;23.30;48.12;98648.47;5014029;28;20407;-67
2021/06/25 10:30:54;;;;;;;1.65;1.20;;;;;;;23.27;48.53;98640.81;5015202;28;20026;-67
2021/06/25 10:33:20;;;;;;;4.57;1.33;;;;;;;23.36;49.19;98654.09;5013445;28;20457;-68
2021/06/25 10:35:48;;;;;;;1.60;1.50;;;;;;;23.69;49.19;98663.97;5015704;28;20021;-69
2021/06/25 10:38:15;;;;;;;1.70;1.40;;;;;;;23.47;49.91;98658.59;5015340;28;20033;-68
2021/06/25 10:40:57;;;;;;;1.20;1.20;;;;;;;23.40;49.27;98665.19;5016087;28;20043;-68
2021/06/25 10:43:54;;;;;;;1.40;1.40;;;;;;;23.27;48.74;98662.59;5016044;28;20525;-67
2021/06/25 10:46:28;;;;;;;1.13;1.10;;;;;;;23.08;48.98;98683.13;5006920;28;20053;-68
2021/06/25 10:48:57;;;;;;;1.10;1.10;;;;;;;23.00;48.87;98686.25;5014648;28;20045;-68
2021/06/25 10:51:27;;;;;;;1.25;1.10;;;;;;;23.00;49.35;98672.38;5014575;28;20440;-68
2021/06/25 10:54:08;;;;;;;1.65;1.10;;;;;;;23.12;49.39;98666.28;5015025;28;20135;-67
2021/06/25 10:56:34;;;;;;;1.13;1.13;;;;;;;23.03;49.71;98670.38;5014700;28;20056;-67
2021/06/25 10:59:27;;;;;;;2.85;1.48;;;;;;;23.21;49.52;98665.66;5014981;28;20033;-68
2021/06/25 11:01:55;;;;;;;2.90;1.20;;;;;;;23.26;49.65;98655.69;5015570;28;20068;-68
2021/06/25 11:04:30;;;;;;;1.35;1.33;;;;;;;23.55;49.24;98656.28;5016999;28;20257;-68
2021/06/25 11:06:56;;;;;;;1.08;1.08;;;;;;;23.58;49.54;98658.69;5016260;28;20132;-68
2021/06/25 11:09:22;;;;;;;1.40;1.30;;;;;;;23.71;48.54;98656.84;5014874;28;20334;-68
2021/06/25 11:11:47;;;;;;;1.40;1.40;;;;;;;23.74;48.33;98674.13;5015208;28;20336;-68
2021/06/25 11:14:28;;;;;;;1.30;1.30;;;;;;;23.60;48.64;98668.09;5014324;28;20030;-68
2021/06/25 11:16:54;;;;;;;1.25;1.25;;;;;;;23.34;47.96;98663.81;5014640;28;20033;-68
2021/06/25 11:19:36;;;;;;;2.00;1.40;;;;;;;23.53;48.42;98673.88;5012993;28;20399;-68
2021/06/25 11:22:01;;;;;;;1.98;1.10;;;;;;;23.48;49.03;98671.56;5015099;28;20026;-68
2021/06/25 11:24:46;;;;;;;1.67;1.20;;;;;;;23.47;49.30;98667.28;5014239;28;20084;-68
2021/06/25 11:27:11;;;;;;;1.35;1.25;;;;;;;23.24;49.46;98665.44;5015217;28;20026;-68
2021/06/25 11:29:45;;;;;;;2.55;1.30;;;;;;;23.30;49.36;98664.97;5014296;28;20226;-69
2021/06/25 11:32:25;;;;;;;1.75;1.65;;;;;;;23.39;49.12;98661.72;5015039;28;20029;-68
2021/06/25 11:34:50;;;;;;;2.00;1.40;;;;;;;23.53;49.16;98655.56;5015493;28;20027;-68
2021/06/25 11:37:16;;;;;;;1.20;1.10;;;;;;;23.65;48.48;98654.66;5012942;28;20367;-68
2021/06/25 11:39:51;;;;;;;1.65;1.35;;;;;;;23.89;48.31;98659.94;5013773;28;20307;-69
2021/06/25 11:42:19;;;;;;;2.70;1.30;;;;;;;23.77;48.40;98656.41;5015155;28;20072;-68
2021/06/25 11:44:50;;;;;;;4.72;1.33;;;;;;;24.09;47.91;98651.44;5014702;28;20073;-68
2021/06/25 11:47:23;;;;;;;1.63;1.52;;;;;;;24.29;47.10;98656.06;5014403;28;20039;-68
2021/06/25 11:52:19;;;;;;;1.25;1.23;;;;;;;24.19;47.87;98652.44;5015018;28;20026;-68